createdAt,value
2022-10-13T00:04:28.930Z,31.47
2022-10-13T00:09:33.426Z,40.03
2022-10-13T00:14:38.638Z,29.05
2022-10-13T00:19:42.422Z,26.97
2022-10-13T00:24:52.071Z,26.58
2022-10-13T00:29:57.221Z,25.88
2022-10-13T00:35:01.005Z,25.10
2022-10-13T00:40:06.142Z,24.88
2022-10-13T00:45:22.310Z,26.70
2022-10-13T00:50:31.080Z,23.17
2022-10-13T00:55:37.923Z,24.20
2022-10-13T01:00:46.259Z,23.27
2022-10-13T01:05:54.833Z,23.85
2022-10-13T01:11:13.398Z,23.63
2022-10-13T01:16:30.783Z,23.10
2022-10-13T01:21:42.301Z,21.45
2022-10-13T01:27:11.554Z,22.38
2022-10-13T01:32:25.441Z,22.90
2022-10-13T01:37:37.466Z,23.27
2022-10-13T01:42:48.167Z,20.40
2022-10-13T01:47:54.431Z,22.77
2022-10-13T01:53:02.088Z,21.92
2022-10-13T01:58:05.909Z,23.15
2022-10-13T02:03:18.859Z,23.40
2022-10-13T02:08:29.644Z,19.67
2022-10-13T02:13:38.131Z,21.38
2022-10-13T02:18:47.460Z,20.38
2022-10-13T02:23:51.693Z,18.98
2022-10-13T02:28:57.507Z,20.25
2022-10-13T02:34:02.866Z,18.40
2022-10-13T02:39:07.520Z,19.25
2022-10-13T02:44:11.659Z,19.65
2022-10-13T02:49:19.957Z,18.63
2022-10-13T02:54:23.753Z,21.13
2022-10-13T02:59:27.551Z,18.70
2022-10-13T03:04:33.111Z,18.45
2022-10-13T03:09:40.077Z,16.23
2022-10-13T03:14:44.161Z,15.77
2022-10-13T03:19:49.390Z,15.65
2022-10-13T03:24:55.370Z,17.17
2022-10-13T03:29:59.079Z,16.42
2022-10-13T03:35:06.493Z,15.60
2022-10-13T03:40:11.302Z,16.33
2022-10-13T03:45:15.100Z,16.63
2022-10-13T03:50:20.462Z,17.05
2022-10-13T03:55:25.255Z,17.25
2022-10-13T04:00:29.158Z,17.92
2022-10-13T04:05:36.406Z,16.20
2022-10-13T04:10:40.305Z,17.30
2022-10-13T04:15:44.196Z,24.52
2022-10-13T04:20:49.404Z,15.43
2022-10-13T04:25:53.134Z,15.53
2022-10-13T04:30:57.035Z,13.70
2022-10-13T04:36:05.329Z,14.77
2022-10-13T04:41:11.169Z,15.68
2022-10-13T04:46:17.959Z,15.75
2022-10-13T04:51:25.321Z,15.27
2022-10-13T04:56:29.774Z,15.07
2022-10-13T05:01:38.134Z,16.90
2022-10-13T05:07:12.642Z,16.00
2022-10-13T05:12:10.748Z,16.05
2022-10-13T05:17:14.510Z,17.65
2022-10-13T05:22:20.021Z,18.75
2022-10-13T05:32:28.153Z,24.15
2022-10-13T05:37:33.770Z,29.27
2022-10-13T05:42:38.320Z,26.05
2022-10-13T05:47:42.242Z,22.90
2022-10-13T05:52:47.894Z,20.52
2022-10-13T05:57:53.327Z,22.05
2022-10-13T06:03:04.840Z,20.70
2022-10-13T06:14:17.427Z,20.83
2022-10-13T06:20:33.761Z,18.80
2022-10-13T06:26:59.148Z,20.50
2022-10-13T06:32:49.305Z,21.02
2022-10-13T06:59:18.067Z,24.77
2022-10-13T07:11:56.831Z,28.02
2022-10-13T07:24:45.199Z,24.10
2022-10-13T07:30:47.667Z,24.75
2022-10-13T07:50:18.596Z,19.15
2022-10-13T07:56:29.088Z,20.27
2022-10-13T08:08:50.733Z,41.97
2022-10-13T08:15:18.777Z,18.83
2022-10-13T08:22:02.572Z,18.35
2022-10-13T08:28:15.647Z,16.38
2022-10-13T08:33:57.144Z,19.02
2022-10-13T08:39:14.161Z,18.98
2022-10-13T08:45:22.276Z,19.83
2022-10-13T08:51:06.868Z,22.27
2022-10-13T08:56:46.530Z,22.70
2022-10-13T09:03:01.512Z,25.75
2022-10-13T09:08:54.266Z,25.30
2022-10-13T09:14:10.490Z,24.58
2022-10-13T09:19:50.953Z,24.58
2022-10-13T09:25:37.168Z,26.70
2022-10-13T09:31:40.971Z,25.25
2022-10-13T09:37:42.460Z,22.92
2022-10-13T09:43:43.582Z,26.83
2022-10-13T09:49:26.712Z,25.42
2022-10-13T09:55:01.592Z,26.63
2022-10-13T10:00:21.891Z,25.13
2022-10-13T10:05:55.841Z,23.30
2022-10-13T10:11:17.175Z,20.63
2022-10-13T10:16:38.568Z,18.30
2022-10-13T10:22:04.394Z,16.02
2022-10-13T10:27:33.692Z,12.82
2022-10-13T10:32:57.940Z,11.60
2022-10-13T10:38:38.407Z,12.43
2022-10-13T10:44:00.927Z,11.95
2022-10-13T10:49:28.972Z,10.52
2022-10-13T10:55:00.103Z,10.50
2022-10-13T11:00:19.237Z,11.63
2022-10-13T11:05:37.171Z,10.45
2022-10-13T11:10:56.486Z,10.63
2022-10-13T11:16:37.919Z,9.93
2022-10-13T11:22:14.997Z,10.23
2022-10-13T11:27:44.554Z,8.90
2022-10-13T11:32:57.572Z,10.15
2022-10-13T11:38:24.429Z,10.35
2022-10-13T11:44:02.634Z,8.98
2022-10-13T11:49:48.321Z,9.63
2022-10-13T11:55:23.355Z,9.35
2022-10-13T12:00:40.925Z,9.23
2022-10-13T12:06:07.908Z,9.00
2022-10-13T12:11:36.924Z,8.32
2022-10-13T12:17:24.135Z,9.18
2022-10-13T12:22:44.973Z,8.40
2022-10-13T12:28:11.592Z,8.45
2022-10-13T12:33:53.155Z,8.30
2022-10-13T12:39:25.590Z,8.73
2022-10-13T12:44:55.368Z,8.07
2022-10-13T12:50:45.561Z,9.25
2022-10-13T12:56:08.818Z,8.93
2022-10-13T13:01:52.900Z,8.20
2022-10-13T13:07:32.769Z,8.40
2022-10-13T13:12:45.063Z,8.35
2022-10-13T13:32:47.011Z,7.50
2022-10-13T13:38:13.147Z,8.30
2022-10-13T13:44:14.691Z,7.90
2022-10-13T13:49:57.348Z,7.65
2022-10-13T13:55:31.408Z,7.93
2022-10-13T14:01:14.795Z,7.93
2022-10-13T14:07:25.836Z,7.70
2022-10-13T14:13:11.411Z,8.15
2022-10-13T14:18:55.785Z,6.85
2022-10-13T14:26:37.334Z,7.55
2022-10-13T14:31:46.181Z,7.80
2022-10-13T14:38:01.789Z,8.13
2022-10-13T14:43:56.229Z,7.38
2022-10-13T14:49:51.886Z,7.40
2022-10-13T15:01:45.324Z,10.38
2022-10-13T15:08:34.037Z,8.57
2022-10-13T15:14:28.785Z,9.25
2022-10-13T15:20:50.745Z,9.57
2022-10-13T15:31:39.548Z,10.68
2022-10-13T15:36:48.992Z,9.73
2022-10-13T15:42:03.153Z,10.70
2022-10-13T15:47:08.299Z,13.30
2022-10-13T15:52:14.847Z,13.30
2022-10-13T15:57:24.589Z,14.70
2022-10-13T16:02:32.282Z,17.63
2022-10-13T16:07:42.573Z,15.85
2022-10-13T16:12:54.053Z,13.63
2022-10-13T16:18:01.362Z,19.17
2022-10-13T16:23:07.083Z,21.70
2022-10-13T16:28:11.015Z,22.27
2022-10-13T16:33:15.690Z,24.77
2022-10-13T16:38:21.005Z,45.72
2022-10-13T16:43:25.283Z,40.95
2022-10-13T16:48:36.665Z,63.92
2022-10-13T16:53:42.080Z,51.17
2022-10-13T16:58:46.075Z,45.22
2022-10-13T17:03:51.256Z,67.95
2022-10-13T17:08:57.856Z,49.50
2022-10-13T17:14:02.661Z,41.25
2022-10-13T17:19:11.796Z,38.22
2022-10-13T17:24:21.052Z,42.85
2022-10-13T17:29:25.295Z,37.38
2022-10-13T17:34:30.839Z,40.83
2022-10-13T17:44:42.800Z,50.88
2022-10-13T17:55:44.909Z,49.35
2022-10-13T18:01:12.445Z,48.85
2022-10-13T18:06:23.705Z,56.70
2022-10-13T18:11:33.789Z,62.08
2022-10-13T18:16:43.823Z,69.88
2022-10-13T18:21:54.453Z,63.08
2022-10-13T18:27:10.319Z,64.45
2022-10-13T18:37:27.107Z,65.03
2022-10-13T18:42:37.901Z,63.80
2022-10-13T18:47:52.881Z,76.20
2022-10-13T18:53:07.603Z,72.97
2022-10-13T18:58:58.425Z,136.98
2022-10-13T19:04:27.405Z,99.85
2022-10-13T19:09:37.872Z,70.05
2022-10-13T19:14:46.087Z,90.22
2022-10-13T19:19:56.768Z,70.05
2022-10-13T19:25:06.654Z,82.88
2022-10-13T19:30:47.270Z,88.43
2022-10-13T19:35:55.876Z,72.53
2022-10-13T19:41:04.790Z,77.10
2022-10-13T19:46:10.440Z,85.72
2022-10-13T19:51:16.041Z,69.63
2022-10-13T19:56:22.482Z,85.82
2022-10-13T20:01:29.760Z,65.45
2022-10-13T20:06:37.894Z,64.00
2022-10-13T20:11:42.680Z,79.13
2022-10-13T20:16:47.265Z,70.72
2022-10-13T20:21:54.509Z,89.20
2022-10-13T20:26:58.500Z,47.13
2022-10-13T20:32:04.495Z,50.35
2022-10-13T20:37:16.690Z,49.53
2022-10-13T20:42:20.763Z,48.42
2022-10-13T20:47:27.341Z,52.35
2022-10-13T20:52:37.811Z,51.97
2022-10-13T20:57:41.871Z,47.97
2022-10-13T21:02:47.466Z,52.17
2022-10-13T21:07:52.866Z,52.42
2022-10-13T21:12:56.753Z,53.47
2022-10-13T21:18:02.613Z,45.78
2022-10-13T21:23:08.881Z,39.08
2022-10-13T21:28:13.431Z,41.70
2022-10-13T21:33:17.812Z,48.35
2022-10-13T21:38:23.258Z,48.25
2022-10-13T21:43:27.326Z,42.75
2022-10-13T21:48:31.308Z,43.65
2022-10-13T21:53:36.946Z,41.45
2022-10-13T21:58:41.118Z,41.20
2022-10-13T22:03:47.149Z,38.95
2022-10-13T22:08:56.962Z,36.85
2022-10-13T22:14:01.471Z,34.63
2022-10-13T22:19:05.601Z,34.95
2022-10-13T22:24:15.322Z,32.72
2022-10-13T22:29:24.285Z,30.30
2022-10-13T22:34:29.106Z,29.10
2022-10-13T22:39:35.073Z,27.77
2022-10-13T22:44:48.338Z,28.02
2022-10-13T22:49:52.781Z,29.83
2022-10-13T22:54:58.526Z,29.60
2022-10-13T23:00:05.403Z,30.55
2022-10-13T23:05:10.164Z,32.40
2022-10-13T23:10:16.190Z,29.13
2022-10-13T23:15:20.316Z,32.33
2022-10-13T23:20:26.138Z,34.28
2022-10-13T23:25:32.507Z,38.07
2022-10-13T23:35:41.034Z,32.78
2022-10-13T23:40:47.860Z,32.80
2022-10-13T23:45:53.025Z,29.48
2022-10-13T23:50:57.442Z,27.50
2022-10-13T23:56:03.883Z,27.15
